createdAt,value
2019-04-23T00:00:23.792Z,68.10
2019-04-23T00:03:01.761Z,68.60
2019-04-23T00:08:07.368Z,64.70
2019-04-23T00:10:28.610Z,63.90
2019-04-23T00:13:01.124Z,63.80
2019-04-23T00:15:51.938Z,62.40
2019-04-23T00:18:22.734Z,62.20
2019-04-23T00:20:47.955Z,63.40
2019-04-23T00:23:22.500Z,67.30
2019-04-23T00:25:53.752Z,67.60
2019-04-23T00:31:13.735Z,64.40
2019-04-23T00:33:26.982Z,63.00
2019-04-23T00:35:49.859Z,62.30
2019-04-23T00:38:18.344Z,62.10
2019-04-23T00:40:58.964Z,61.10
2019-04-23T00:46:02.339Z,60.00
2019-04-23T00:48:45.562Z,58.90
2019-04-23T00:51:02.189Z,58.20
2019-04-23T00:53:25.173Z,57.30
2019-04-23T00:56:03.901Z,57.20
2019-04-23T00:58:32.326Z,56.20
2019-04-23T01:01:00.372Z,55.60
2019-04-23T01:03:23.010Z,54.90
2019-04-23T01:05:52.301Z,54.90
2019-04-23T01:08:28.491Z,55.10
2019-04-23T01:11:18.137Z,55.20
2019-04-23T01:13:40.061Z,55.20
2019-04-23T01:16:06.061Z,55.20
2019-04-23T01:18:51.456Z,55.20
2019-04-23T01:21:15.716Z,55.20
2019-04-23T01:23:53.900Z,55.20
2019-04-23T01:26:35.502Z,55.70
2019-04-23T01:29:12.631Z,56.20
2019-04-23T01:31:47.534Z,55.80
2019-04-23T01:34:19.748Z,56.30
2019-04-23T01:36:41.211Z,56.90
2019-04-23T01:41:47.818Z,58.10
2019-04-23T01:44:14.410Z,58.30
2019-04-23T01:46:49.154Z,59.40
2019-04-23T01:49:14.916Z,59.80
2019-04-23T01:51:50.886Z,61.10
2019-04-23T01:54:19.169Z,60.40
2019-04-23T01:56:42.065Z,61.20
2019-04-23T01:59:18.304Z,63.40
2019-04-23T02:01:51.598Z,76.70
2019-04-23T02:04:22.891Z,75.20
2019-04-23T02:06:44.934Z,71.90
2019-04-23T02:09:16.887Z,69.00
2019-04-23T02:11:46.834Z,66.00
2019-04-23T02:14:18.374Z,65.50
2019-04-23T02:16:44.146Z,66.20
2019-04-23T02:19:17.063Z,66.60
2019-04-23T02:22:05.084Z,64.70
2019-04-23T02:24:41.679Z,64.70
2019-04-23T02:27:05.630Z,64.20
2019-04-23T02:29:43.553Z,63.60
2019-04-23T02:34:51.977Z,62.80
2019-04-23T02:37:19.235Z,62.30
2019-04-23T02:39:51.850Z,62.60
2019-04-23T02:42:47.119Z,62.40
2019-04-23T02:44:39.445Z,62.20
2019-04-23T02:47:17.553Z,62.00
2019-04-23T02:52:18.896Z,62.50
2019-04-23T02:57:13.948Z,60.10
2019-04-23T03:00:12.421Z,59.60
2019-04-23T03:04:49.936Z,59.50
2019-04-23T03:14:50.780Z,59.90
2019-04-23T03:17:15.087Z,59.40
2019-04-23T03:20:15.033Z,59.00
2019-04-23T03:22:55.981Z,57.90
2019-04-23T03:25:25.448Z,57.80
2019-04-23T03:27:41.910Z,57.30
2019-04-23T03:35:09.022Z,58.00
2019-04-23T03:38:10.539Z,58.60
2019-04-23T03:42:53.855Z,66.60
2019-04-23T03:45:25.290Z,63.10
2019-04-23T03:47:54.454Z,70.80
2019-04-23T03:50:29.879Z,67.60
2019-04-23T03:52:46.528Z,66.60
2019-04-23T03:55:29.801Z,62.90
2019-04-23T03:57:45.216Z,62.30
2019-04-23T04:00:32.599Z,62.10
2019-04-23T04:03:03.735Z,61.30
2019-04-23T04:05:32.830Z,61.00
2019-04-23T04:08:02.382Z,60.70
2019-04-23T04:10:16.666Z,60.40
2019-04-23T04:12:45.696Z,60.00
2019-04-23T04:15:48.902Z,59.60
2019-04-23T04:18:01.230Z,59.30
2019-04-23T04:20:33.042Z,58.40
2019-04-23T04:23:00.054Z,58.30
2019-04-23T04:25:30.735Z,58.10
2019-04-23T04:30:27.290Z,56.60
2019-04-23T04:38:10.750Z,56.00
2019-04-23T04:40:33.084Z,55.10
2019-04-23T04:47:45.375Z,53.80
2019-04-23T04:50:22.238Z,53.40
2019-04-23T04:53:01.539Z,53.30
2019-04-23T04:58:07.462Z,52.50
2019-04-23T05:00:32.597Z,52.50
2019-04-23T05:08:02.560Z,52.30
2019-04-23T05:13:11.998Z,52.10
2019-04-23T05:15:17.138Z,52.60
2019-04-23T05:18:17.296Z,55.80
2019-04-23T05:20:50.709Z,61.30
2019-04-23T05:23:22.857Z,62.40
2019-04-23T05:25:37.894Z,60.20
2019-04-23T05:30:50.097Z,56.10
2019-04-23T05:33:14.544Z,54.40
2019-04-23T05:38:19.003Z,54.00
2019-04-23T05:43:12.712Z,53.20
2019-04-23T05:45:44.589Z,54.30
2019-04-23T05:48:16.192Z,53.80
2019-04-23T05:53:13.387Z,50.60
2019-04-23T05:55:46.047Z,51.10
2019-04-23T05:58:16.926Z,46.60
2019-04-23T06:00:44.953Z,45.30
2019-04-23T06:03:30.590Z,43.50
2019-04-23T06:08:25.265Z,41.70
2019-04-23T06:10:57.218Z,42.40
2019-04-23T06:13:26.438Z,40.70
2019-04-23T06:15:52.091Z,40.80
2019-04-23T06:18:25.322Z,39.50
2019-04-23T06:20:55.865Z,38.90
2019-04-23T06:23:30.362Z,38.50
2019-04-23T06:26:19.862Z,38.20
2019-04-23T06:28:24.500Z,38.50
2019-04-23T06:30:54.470Z,37.60
2019-04-23T06:36:00.065Z,36.20
2019-04-23T06:40:53.972Z,35.60
2019-04-23T06:43:24.100Z,35.10
2019-04-23T06:45:49.519Z,34.80
2019-04-23T06:50:57.928Z,35.10
2019-04-23T06:53:22.799Z,35.30
2019-04-23T06:55:55.717Z,35.50
2019-04-23T06:58:33.925Z,35.20
2019-04-23T07:00:59.209Z,34.70
2019-04-23T07:03:31.757Z,34.10
2019-04-23T07:06:17.290Z,33.90
2019-04-23T07:08:56.330Z,34.10
2019-04-23T07:11:18.815Z,34.00
2019-04-23T07:13:50.232Z,33.00
2019-04-23T07:16:09.209Z,33.80
2019-04-23T07:18:36.488Z,31.80
2019-04-23T07:21:12.956Z,32.20
2019-04-23T07:23:44.939Z,30.80
2019-04-23T07:26:17.536Z,31.70
2019-04-23T07:28:48.527Z,30.20
2019-04-23T07:31:14.139Z,29.70
2019-04-23T07:33:43.950Z,29.20
2019-04-23T07:36:20.692Z,29.10
2019-04-23T07:39:01.271Z,29.10
2019-04-23T07:44:24.231Z,26.90
2019-04-23T07:47:16.296Z,25.80
2019-04-23T07:49:45.386Z,25.40
2019-04-23T07:52:24.316Z,25.10
2019-04-23T07:54:42.006Z,24.10
2019-04-23T07:57:13.508Z,24.60
2019-04-23T07:59:47.413Z,24.40
2019-04-23T08:02:13.919Z,23.60
2019-04-23T08:04:44.725Z,23.90
2019-04-23T08:07:09.203Z,23.20
2019-04-23T08:09:44.778Z,23.00
2019-04-23T08:12:13.837Z,22.10
2019-04-23T08:14:40.470Z,20.70
2019-04-23T08:17:08.759Z,22.10
2019-04-23T08:22:22.234Z,20.00
2019-04-23T08:24:45.257Z,20.00
2019-04-23T08:27:13.069Z,18.10
2019-04-23T08:29:36.151Z,18.60
2019-04-23T08:32:15.108Z,16.90
2019-04-23T08:37:15.287Z,18.30
2019-04-23T08:39:43.181Z,18.10
2019-04-23T08:42:33.417Z,18.40
2019-04-23T08:44:56.993Z,18.30
2019-04-23T08:52:18.241Z,19.00
2019-04-23T08:57:21.176Z,17.60
2019-04-23T08:59:47.303Z,19.90
2019-04-23T09:04:55.423Z,18.20
2019-04-23T09:07:21.676Z,18.50
2019-04-23T09:10:02.484Z,17.70
2019-04-23T09:12:27.011Z,17.90
2019-04-23T09:14:54.414Z,18.90
2019-04-23T09:17:27.806Z,19.00
2019-04-23T09:20:11.797Z,18.40
2019-04-23T09:24:55.558Z,18.90
2019-04-23T09:27:26.203Z,19.00
2019-04-23T09:35:14.343Z,15.30
2019-04-23T09:38:03.654Z,15.30
2019-04-23T09:40:54.876Z,17.50
2019-04-23T09:43:22.843Z,16.90
2019-04-23T09:45:48.460Z,16.90
2019-04-23T09:48:11.967Z,17.40
2019-04-23T09:50:50.920Z,18.30
2019-04-23T09:55:41.677Z,16.90
2019-04-23T10:00:45.037Z,18.70
2019-04-23T10:03:11.853Z,18.10
2019-04-23T10:05:33.965Z,18.10
2019-04-23T10:08:04.213Z,18.20
2019-04-23T10:10:23.832Z,19.30
2019-04-23T10:12:53.632Z,19.10
2019-04-23T10:15:26.680Z,18.80
2019-04-23T10:17:54.090Z,18.80
2019-04-23T10:20:22.670Z,19.00
2019-04-23T10:22:52.591Z,19.80
2019-04-23T10:25:22.659Z,18.60
2019-04-23T10:27:55.117Z,18.50
2019-04-23T10:30:21.760Z,18.50
2019-04-23T10:32:51.569Z,18.80
2019-04-23T10:35:30.402Z,19.60
2019-04-23T10:37:56.647Z,20.00
2019-04-23T10:40:26.279Z,19.10
2019-04-23T10:42:51.897Z,18.20
2019-04-23T10:45:44.789Z,17.50
2019-04-23T10:48:49.939Z,17.90
2019-04-23T10:51:33.902Z,21.30
2019-04-23T10:54:03.426Z,20.50
2019-04-23T10:56:34.734Z,19.20
2019-04-23T10:58:55.927Z,20.80
2019-04-23T11:01:31.937Z,21.00
2019-04-23T11:04:21.206Z,21.20
2019-04-23T11:06:41.368Z,22.00
2019-04-23T11:09:20.182Z,22.40
2019-04-23T11:11:34.490Z,22.70
2019-04-23T11:14:13.197Z,22.90
2019-04-23T11:21:42.474Z,21.10
2019-04-23T11:24:21.281Z,20.80
2019-04-23T11:26:44.598Z,21.20
2019-04-23T11:29:16.042Z,20.40
2019-04-23T11:31:41.468Z,20.80
2019-04-23T11:34:18.860Z,21.10
2019-04-23T11:37:07.819Z,20.80
2019-04-23T11:39:08.367Z,20.30
2019-04-23T11:42:08.601Z,20.00
2019-04-23T11:49:29.447Z,20.30
2019-04-23T11:59:16.325Z,21.20
2019-04-23T12:04:26.523Z,18.40
2019-04-23T12:07:00.208Z,19.30
2019-04-23T12:09:43.092Z,19.20
2019-04-23T12:12:09.532Z,19.80
2019-04-23T12:14:40.563Z,19.80
2019-04-23T12:17:26.405Z,18.60
2019-04-23T12:22:19.978Z,16.60
2019-04-23T12:25:02.959Z,15.30
2019-04-23T12:27:17.224Z,17.40
2019-04-23T12:40:15.542Z,18.50
2019-04-23T12:47:53.590Z,18.90
2019-04-23T12:50:40.725Z,18.90
2019-04-23T12:52:40.748Z,19.60
2019-04-23T12:55:19.579Z,19.10
2019-04-23T12:57:42.314Z,19.30
2019-04-23T13:00:19.140Z,19.40
2019-04-23T13:02:46.301Z,19.10
2019-04-23T13:10:15.871Z,18.30
2019-04-23T13:15:15.837Z,18.70
2019-04-23T13:20:18.832Z,17.30
2019-04-23T13:22:49.314Z,17.80
2019-04-23T13:25:19.967Z,17.10
2019-04-23T13:27:57.187Z,17.80
2019-04-23T13:30:23.215Z,18.90
2019-04-23T13:32:52.235Z,19.20
2019-04-23T13:37:54.787Z,18.40
2019-04-23T13:40:24.261Z,18.70
2019-04-23T13:42:52.528Z,19.10
2019-04-23T13:45:53.357Z,19.70
2019-04-23T13:47:53.242Z,19.70
2019-04-23T13:50:33.282Z,20.50
2019-04-23T13:53:07.812Z,19.50
2019-04-23T14:00:25.038Z,19.60
2019-04-23T14:02:49.369Z,19.80
2019-04-23T14:07:54.794Z,19.20
2019-04-23T14:10:29.851Z,18.90
2019-04-23T14:13:10.850Z,20.30
2019-04-23T14:15:34.430Z,19.10
2019-04-23T14:20:30.183Z,19.20
2019-04-23T14:23:09.368Z,19.40
2019-04-23T14:25:27.975Z,19.30
2019-04-23T14:28:07.293Z,18.90
2019-04-23T14:30:38.217Z,19.50
2019-04-23T14:33:03.554Z,19.60
2019-04-23T14:38:19.555Z,19.60
2019-04-23T14:40:40.043Z,19.80
2019-04-23T14:43:18.307Z,20.00
2019-04-23T14:45:42.566Z,19.90
2019-04-23T14:48:10.466Z,20.10
2019-04-23T14:58:18.185Z,20.40
2019-04-23T15:00:41.110Z,19.70
2019-04-23T15:03:20.228Z,19.30
2019-04-23T15:05:52.265Z,19.40
2019-04-23T15:08:15.558Z,20.10
2019-04-23T15:10:41.700Z,20.60
2019-04-23T15:13:08.665Z,22.30
2019-04-23T15:15:44.496Z,22.80
2019-04-23T15:18:27.853Z,23.30
2019-04-23T15:21:08.350Z,23.10
2019-04-23T15:26:37.271Z,24.90
2019-04-23T15:28:13.293Z,25.10
2019-04-23T15:30:57.125Z,26.00
2019-04-23T15:33:27.114Z,26.20
2019-04-23T15:36:09.406Z,25.40
2019-04-23T15:38:33.898Z,25.10
2019-04-23T15:40:55.458Z,25.00
2019-04-23T15:43:23.544Z,25.10
2019-04-23T15:45:52.577Z,26.40
2019-04-23T15:48:22.445Z,27.10
2019-04-23T15:50:51.608Z,28.20
2019-04-23T15:53:14.380Z,26.60
2019-04-23T15:56:02.668Z,27.10
2019-04-23T15:58:28.157Z,26.60
2019-04-23T16:01:21.844Z,28.40
2019-04-23T16:03:19.723Z,29.90
2019-04-23T16:05:48.773Z,29.90
2019-04-23T16:08:56.826Z,29.60
2019-04-23T16:11:32.829Z,29.80
2019-04-23T16:14:13.440Z,30.60
2019-04-23T16:16:28.622Z,32.90
2019-04-23T16:19:07.737Z,34.20
2019-04-23T16:21:47.312Z,34.70
2019-04-23T16:24:09.645Z,34.90
2019-04-23T16:26:37.315Z,34.40
2019-04-23T16:37:15.466Z,37.90
2019-04-23T16:39:21.975Z,38.40
2019-04-23T16:42:02.244Z,38.30
2019-04-23T16:44:29.931Z,38.40
2019-04-23T16:47:04.579Z,38.10
2019-04-23T16:49:36.387Z,38.30
2019-04-23T16:51:59.195Z,39.10
2019-04-23T16:54:32.906Z,39.70
2019-04-23T16:59:34.917Z,40.70
2019-04-23T17:06:57.822Z,41.40
2019-04-23T17:09:38.846Z,42.20
2019-04-23T17:12:07.701Z,41.70
2019-04-23T17:14:23.432Z,42.30
2019-04-23T17:16:53.378Z,42.60
2019-04-23T17:19:33.316Z,43.00
2019-04-23T17:21:59.971Z,43.60
2019-04-23T17:24:31.184Z,44.80
2019-04-23T17:29:29.434Z,46.40
2019-04-23T17:32:10.361Z,47.20
2019-04-23T17:35:09.905Z,48.70
2019-04-23T17:37:37.270Z,47.90
2019-04-23T17:43:01.686Z,47.90
2019-04-23T17:48:14.174Z,48.30
2019-04-23T17:50:52.816Z,48.90
2019-04-23T17:53:21.623Z,49.10
2019-04-23T17:56:02.451Z,49.40
2019-04-23T17:58:24.932Z,49.90
2019-04-23T18:01:05.575Z,50.10
2019-04-23T18:03:28.207Z,50.30
2019-04-23T18:06:03.670Z,50.60
2019-04-23T18:08:29.149Z,51.20
2019-04-23T18:10:59.461Z,51.20
2019-04-23T18:13:28.234Z,52.00
2019-04-23T18:16:02.810Z,51.70
2019-04-23T18:18:33.582Z,52.50
2019-04-23T18:21:08.461Z,52.10
2019-04-23T18:23:22.904Z,52.80
2019-04-23T18:26:01.877Z,54.10
2019-04-23T18:28:27.704Z,53.50
2019-04-23T18:31:11.331Z,54.00
2019-04-23T18:36:02.409Z,54.10
2019-04-23T18:38:57.079Z,55.10
2019-04-23T18:43:34.216Z,55.20
2019-04-23T18:48:44.118Z,55.60
2019-04-23T19:01:13.947Z,57.20
2019-04-23T19:06:37.664Z,57.90
2019-04-23T19:09:23.461Z,57.10
2019-04-23T19:12:26.715Z,59.00
2019-04-23T19:19:46.618Z,58.00
2019-04-23T19:24:44.882Z,59.70
2019-04-23T19:32:14.407Z,61.50
2019-04-23T19:37:04.165Z,61.30
2019-04-23T19:39:47.827Z,61.30
2019-04-23T19:44:41.170Z,62.90
2019-04-23T19:47:25.716Z,62.50
2019-04-23T19:49:36.989Z,62.20
2019-04-23T19:54:52.576Z,63.60
2019-04-23T19:57:22.234Z,62.90
2019-04-23T19:59:44.773Z,64.90
2019-04-23T20:02:37.191Z,63.80
2019-04-23T20:04:41.091Z,63.60
2019-04-23T20:09:50.810Z,64.80
2019-04-23T20:12:07.759Z,65.10
2019-04-23T20:19:44.136Z,66.90
2019-04-23T20:22:15.831Z,67.00
2019-04-23T20:32:03.176Z,67.50
2019-04-23T20:34:56.632Z,68.00
2019-04-23T20:37:26.378Z,69.20
2019-04-23T20:39:55.086Z,68.40
2019-04-23T20:42:18.040Z,67.50
2019-04-23T20:45:04.801Z,68.50
2019-04-23T20:47:45.444Z,68.80
2019-04-23T20:49:50.472Z,69.60
2019-04-23T20:52:34.074Z,70.50
2019-04-23T21:00:01.713Z,71.60
2019-04-23T21:02:54.730Z,72.60
2019-04-23T21:07:50.428Z,71.30
2019-04-23T21:10:40.347Z,72.60
2019-04-23T21:17:51.529Z,73.10
2019-04-23T21:20:18.287Z,73.00
2019-04-23T21:22:41.512Z,71.90
2019-04-23T21:25:22.667Z,74.90
2019-04-23T21:28:06.817Z,74.00
2019-04-23T21:30:08.968Z,73.50
2019-04-23T21:32:52.592Z,73.90
2019-04-23T21:35:16.275Z,73.50
2019-04-23T21:37:54.012Z,73.60
2019-04-23T21:41:05.533Z,73.10
2019-04-23T21:43:21.829Z,74.00
2019-04-23T21:45:54.549Z,75.70
2019-04-23T21:48:15.663Z,74.80
2019-04-23T21:53:14.761Z,76.30
2019-04-23T21:55:54.530Z,77.20
2019-04-23T21:58:17.279Z,76.50
2019-04-23T22:00:53.577Z,77.90
2019-04-23T22:03:19.525Z,77.10
2019-04-23T22:05:52.822Z,76.60
2019-04-23T22:08:10.351Z,77.00
2019-04-23T22:10:59.943Z,76.60
2019-04-23T22:13:20.626Z,77.10
2019-04-23T22:15:54.693Z,75.20
2019-04-23T22:18:16.149Z,77.30
2019-04-23T22:20:51.329Z,77.10
2019-04-23T22:25:56.443Z,72.20
2019-04-23T22:28:16.125Z,73.00
2019-04-23T22:31:04.072Z,71.80
2019-04-23T22:33:18.130Z,70.70
2019-04-23T22:36:01.388Z,69.80
2019-04-23T22:40:52.852Z,69.80
2019-04-23T22:43:20.585Z,67.70
2019-04-23T22:45:53.381Z,68.50
2019-04-23T22:48:13.901Z,68.60
2019-04-23T22:50:59.339Z,66.30
2019-04-23T22:53:11.139Z,67.10
2019-04-23T22:56:01.871Z,66.80
2019-04-23T22:58:11.010Z,65.70
2019-04-23T23:00:55.657Z,65.90
2019-04-23T23:03:22.740Z,62.60
2019-04-23T23:08:20.902Z,60.30
2019-04-23T23:10:57.537Z,59.80
2019-04-23T23:13:35.780Z,59.10
2019-04-23T23:16:10.505Z,59.10
2019-04-23T23:20:59.559Z,58.90
2019-04-23T23:23:21.486Z,58.80
2019-04-23T23:28:26.911Z,56.70
2019-04-23T23:31:04.807Z,55.50
2019-04-23T23:33:24.666Z,54.80
2019-04-23T23:36:03.503Z,54.40
2019-04-23T23:38:36.688Z,53.60
2019-04-23T23:46:18.611Z,55.30
2019-04-23T23:48:29.500Z,54.90
2019-04-23T23:51:11.445Z,54.70
2019-04-23T23:56:07.371Z,54.80
2019-04-23T23:58:45.808Z,54.80
